createdAt,value
2023-02-06T00:01:46.310Z,12.10
2023-02-06T00:04:14.917Z,11.52
2023-02-06T00:06:43.686Z,10.75
2023-02-06T00:09:12.068Z,11.13
2023-02-06T00:11:39.989Z,9.93
2023-02-06T00:14:08.298Z,11.70
2023-02-06T00:16:37.230Z,12.07
2023-02-06T00:19:05.593Z,10.52
2023-02-06T00:21:34.554Z,9.57
2023-02-06T00:24:03.834Z,9.93
2023-02-06T00:26:33.402Z,10.80
2023-02-06T00:29:02.162Z,10.13
2023-02-06T00:31:31.037Z,10.43
2023-02-06T00:33:59.785Z,10.15
2023-02-06T00:36:28.411Z,9.85
2023-02-06T00:38:57.219Z,11.30
2023-02-06T00:41:25.190Z,10.00
2023-02-06T00:43:53.165Z,11.15
2023-02-06T00:46:21.912Z,9.88
2023-02-06T00:48:50.351Z,9.95
2023-02-06T00:51:18.390Z,8.63
2023-02-06T00:53:46.520Z,10.60
2023-02-06T00:56:14.449Z,10.05
2023-02-06T00:58:42.256Z,11.50
2023-02-06T01:01:13.063Z,10.40
2023-02-06T01:03:41.027Z,9.45
2023-02-06T01:06:10.717Z,9.73
2023-02-06T01:08:39.165Z,11.15
2023-02-06T01:11:13.474Z,9.23
2023-02-06T01:13:43.791Z,9.00
2023-02-06T01:16:16.553Z,9.52
2023-02-06T01:18:46.322Z,9.98
2023-02-06T01:21:22.776Z,9.68
2023-02-06T01:23:55.380Z,10.13
2023-02-06T01:26:29.248Z,8.80
2023-02-06T01:28:57.844Z,10.50
2023-02-06T01:31:29.195Z,10.00
2023-02-06T01:34:00.444Z,9.27
2023-02-06T01:36:29.654Z,8.95
2023-02-06T01:38:57.972Z,8.15
2023-02-06T01:41:26.254Z,8.15
2023-02-06T01:44:24.707Z,10.65
2023-02-06T01:46:57.750Z,10.20
2023-02-06T01:49:40.023Z,8.80
2023-02-06T01:52:21.999Z,8.95
2023-02-06T01:55:01.484Z,9.68
2023-02-06T01:57:30.707Z,7.47
2023-02-06T02:00:06.287Z,8.35
2023-02-06T02:02:45.186Z,9.30
2023-02-06T02:05:13.983Z,7.60
2023-02-06T02:08:03.087Z,8.70
2023-02-06T02:10:32.706Z,8.27
2023-02-06T02:13:00.673Z,8.02
2023-02-06T02:16:09.707Z,7.63
2023-02-06T02:19:06.072Z,8.40
2023-02-06T02:21:58.957Z,8.25
2023-02-06T02:25:15.247Z,7.45
2023-02-06T02:28:34.544Z,9.10
2023-02-06T02:31:48.294Z,7.55
2023-02-06T02:34:40.986Z,7.13
2023-02-06T02:37:52.628Z,7.65
2023-02-06T02:40:51.191Z,6.47
2023-02-06T02:43:51.007Z,6.93
2023-02-06T02:46:43.249Z,6.95
2023-02-06T02:49:22.030Z,6.43
2023-02-06T02:51:51.772Z,7.43
2023-02-06T02:54:21.171Z,6.28
2023-02-06T02:56:49.431Z,6.95
2023-02-06T02:59:25.806Z,6.70
2023-02-06T03:02:08.138Z,6.20
2023-02-06T03:04:53.650Z,7.28
2023-02-06T03:07:42.994Z,6.75
2023-02-06T03:10:37.311Z,6.70
2023-02-06T03:13:29.490Z,7.63
2023-02-06T03:16:55.150Z,7.63
2023-02-06T03:19:32.988Z,7.13
2023-02-06T03:22:03.620Z,8.35
2023-02-06T03:24:37.461Z,7.15
2023-02-06T03:27:12.104Z,8.27
2023-02-06T03:29:43.178Z,7.97
2023-02-06T03:32:24.277Z,4.38
2023-02-06T03:35:18.971Z,9.88
2023-02-06T03:37:49.277Z,9.15
2023-02-06T03:40:18.520Z,7.22
2023-02-06T03:42:56.711Z,8.10
2023-02-06T03:45:41.567Z,8.23
2023-02-06T03:48:22.561Z,6.47
2023-02-06T03:50:54.408Z,11.02
2023-02-06T03:53:24.212Z,8.55
2023-02-06T03:55:59.949Z,11.88
2023-02-06T03:58:28.567Z,13.95
2023-02-06T04:00:57.315Z,21.50
2023-02-06T04:03:27.081Z,56.80
2023-02-06T04:05:57.072Z,26.73
2023-02-06T04:08:25.644Z,22.67
2023-02-06T04:10:53.552Z,51.78
2023-02-06T04:13:21.790Z,15.88
2023-02-06T04:15:50.153Z,14.40
2023-02-06T04:18:18.148Z,27.05
2023-02-06T04:20:46.298Z,21.67
2023-02-06T04:23:14.139Z,20.25
2023-02-06T04:25:42.001Z,45.42
2023-02-06T04:28:10.243Z,26.75
2023-02-06T04:30:38.102Z,16.75
2023-02-06T04:33:06.439Z,18.20
2023-02-06T04:35:35.141Z,26.30
2023-02-06T04:38:03.534Z,15.63
2023-02-06T04:40:31.449Z,16.13
2023-02-06T04:42:59.984Z,15.15
2023-02-06T04:45:27.906Z,10.50
2023-02-06T04:47:56.342Z,16.80
2023-02-06T04:50:31.633Z,17.00
2023-02-06T04:52:59.887Z,11.15
2023-02-06T04:55:28.003Z,15.20
2023-02-06T04:57:56.003Z,14.57
2023-02-06T05:00:24.008Z,12.15
2023-02-06T05:02:52.224Z,16.45
2023-02-06T05:05:20.356Z,15.68
2023-02-06T05:07:48.286Z,16.70
2023-02-06T05:10:16.547Z,9.93
2023-02-06T05:12:44.739Z,15.57
2023-02-06T05:15:12.632Z,15.88
2023-02-06T05:17:40.757Z,15.70
2023-02-06T05:20:09.961Z,16.98
2023-02-06T05:22:38.062Z,17.70
2023-02-06T05:25:06.540Z,16.33
2023-02-06T05:27:34.854Z,16.88
2023-02-06T05:30:03.614Z,17.55
2023-02-06T05:32:32.974Z,15.95
2023-02-06T05:35:00.889Z,17.05
2023-02-06T05:37:28.790Z,17.60
2023-02-06T05:39:59.116Z,16.65
2023-02-06T05:42:27.953Z,18.90
2023-02-06T05:44:55.924Z,20.95
2023-02-06T05:47:23.982Z,19.65
2023-02-06T05:49:52.875Z,18.98
2023-02-06T05:52:20.776Z,17.77
2023-02-06T05:54:49.922Z,17.45
2023-02-06T05:57:17.895Z,18.23
2023-02-06T05:59:45.762Z,18.80
2023-02-06T06:02:13.761Z,18.67
2023-02-06T06:04:41.944Z,20.95
2023-02-06T06:07:10.212Z,19.30
2023-02-06T06:09:38.595Z,21.80
2023-02-06T06:12:07.034Z,26.85
2023-02-06T06:14:35.385Z,24.52
2023-02-06T06:17:03.630Z,19.73
2023-02-06T06:19:31.933Z,17.52
2023-02-06T06:21:59.976Z,19.67
2023-02-06T06:24:28.361Z,18.73
2023-02-06T06:26:56.647Z,20.58
2023-02-06T06:29:25.114Z,20.88
2023-02-06T06:31:55.319Z,19.80
2023-02-06T06:34:23.628Z,19.67
2023-02-06T06:36:52.313Z,20.15
2023-02-06T06:39:20.676Z,20.88
2023-02-06T06:41:48.742Z,23.10
2023-02-06T06:44:17.438Z,21.27
2023-02-06T06:46:45.663Z,22.95
2023-02-06T06:49:13.718Z,23.63
2023-02-06T06:51:42.102Z,22.40
2023-02-06T06:54:10.132Z,20.75
2023-02-06T06:56:38.287Z,23.98
2023-02-06T06:59:06.563Z,20.45
2023-02-06T07:01:34.800Z,22.42
2023-02-06T07:04:02.881Z,24.15
2023-02-06T07:06:31.186Z,21.73
2023-02-06T07:08:59.182Z,22.33
2023-02-06T07:11:27.460Z,25.83
2023-02-06T07:13:55.414Z,23.92
2023-02-06T07:16:24.727Z,24.02
2023-02-06T07:18:52.982Z,23.30
2023-02-06T07:21:21.092Z,20.77
2023-02-06T07:23:49.134Z,21.20
2023-02-06T07:26:17.163Z,19.98
2023-02-06T07:28:45.179Z,21.63
2023-02-06T07:31:13.281Z,19.58
2023-02-06T07:33:42.010Z,20.02
2023-02-06T07:36:15.946Z,18.75
2023-02-06T07:38:44.235Z,19.05
2023-02-06T07:41:12.866Z,19.33
2023-02-06T07:43:41.831Z,20.48
2023-02-06T07:46:10.177Z,20.67
2023-02-06T07:48:38.690Z,22.10
2023-02-06T07:51:10.378Z,22.30
2023-02-06T07:56:16.632Z,22.17
2023-02-06T07:58:49.072Z,22.60
2023-02-06T08:01:17.321Z,19.67
2023-02-06T08:03:45.539Z,21.58
2023-02-06T08:06:16.632Z,19.67
2023-02-06T08:08:45.253Z,20.60
2023-02-06T08:11:19.571Z,22.13
2023-02-06T08:13:48.462Z,23.10
2023-02-06T08:16:22.592Z,21.13
2023-02-06T08:18:51.025Z,24.55
2023-02-06T08:21:25.185Z,19.77
2023-02-06T08:23:58.187Z,22.15
2023-02-06T08:26:29.551Z,18.83
2023-02-06T08:29:01.292Z,20.73
2023-02-06T08:34:01.083Z,22.08
2023-02-06T08:36:32.077Z,18.33
2023-02-06T08:39:01.795Z,22.90
2023-02-06T08:41:39.247Z,20.77
2023-02-06T08:44:14.768Z,20.75
2023-02-06T08:46:45.106Z,21.90
2023-02-06T08:49:19.448Z,24.63
2023-02-06T08:51:50.433Z,23.92
2023-02-06T08:54:23.305Z,19.60
2023-02-06T08:56:53.020Z,24.63
2023-02-06T08:59:21.220Z,23.38
2023-02-06T09:01:49.679Z,26.02
2023-02-06T09:04:19.245Z,22.98
2023-02-06T09:06:49.267Z,23.08
2023-02-06T09:09:18.626Z,21.25
2023-02-06T09:11:47.843Z,19.58
2023-02-06T09:14:18.159Z,16.73
2023-02-06T09:16:46.720Z,24.27
2023-02-06T09:19:15.069Z,24.27
2023-02-06T09:21:43.284Z,26.73
2023-02-06T09:24:12.202Z,20.00
2023-02-06T09:26:58.519Z,26.52
2023-02-06T09:29:32.333Z,23.42
2023-02-06T09:32:00.865Z,24.80
2023-02-06T09:34:29.348Z,24.65
2023-02-06T09:36:58.431Z,21.80
2023-02-06T09:39:26.681Z,21.63
2023-02-06T09:42:29.673Z,21.48
2023-02-06T09:45:12.081Z,21.92
2023-02-06T09:47:47.586Z,22.75
2023-02-06T09:50:51.271Z,23.92
2023-02-06T09:53:42.697Z,19.75
2023-02-06T09:56:39.938Z,21.38
2023-02-06T09:59:29.899Z,22.60
2023-02-06T10:02:48.428Z,19.05
2023-02-06T10:06:00.818Z,19.92
2023-02-06T10:09:19.040Z,19.40
2023-02-06T10:11:57.091Z,19.40
2023-02-06T10:14:53.100Z,18.27
2023-02-06T10:17:34.392Z,17.25
2023-02-06T10:20:39.247Z,17.25
2023-02-06T10:23:23.297Z,17.42
2023-02-06T10:26:19.727Z,19.52
2023-02-06T10:28:56.691Z,21.35
2023-02-06T10:31:24.913Z,19.05
2023-02-06T10:34:19.988Z,21.92
2023-02-06T10:37:19.390Z,15.52
2023-02-06T10:39:50.537Z,18.73
2023-02-06T10:42:56.635Z,18.30
2023-02-06T10:45:51.779Z,18.90
2023-02-06T10:48:46.462Z,16.70
2023-02-06T10:51:43.999Z,22.40
2023-02-06T10:54:23.956Z,18.52
2023-02-06T10:56:54.935Z,22.00
2023-02-06T10:59:34.602Z,20.92
2023-02-06T11:03:07.087Z,16.30
2023-02-06T11:05:37.226Z,16.65
2023-02-06T11:08:32.224Z,16.90
2023-02-06T11:11:29.762Z,19.73
2023-02-06T11:14:24.940Z,18.30
2023-02-06T11:16:54.318Z,20.13
2023-02-06T11:19:48.854Z,18.95
2023-02-06T11:22:28.982Z,19.63
2023-02-06T11:25:03.735Z,20.52
2023-02-06T11:27:34.889Z,20.60
2023-02-06T11:30:22.772Z,18.70
2023-02-06T11:33:04.636Z,20.40
2023-02-06T11:35:51.591Z,19.73
2023-02-06T11:38:24.396Z,19.73
2023-02-06T11:41:18.987Z,20.65
2023-02-06T11:43:51.935Z,21.13
2023-02-06T11:46:32.711Z,18.15
2023-02-06T11:49:25.025Z,18.17
2023-02-06T11:52:01.354Z,21.33
2023-02-06T11:54:35.745Z,19.75
2023-02-06T11:57:08.270Z,20.65
2023-02-06T11:59:49.361Z,19.73
2023-02-06T12:02:35.548Z,20.92
2023-02-06T12:05:17.169Z,21.40
2023-02-06T12:07:52.376Z,20.52
2023-02-06T12:10:23.756Z,17.75
2023-02-06T12:13:26.680Z,22.38
2023-02-06T12:16:00.986Z,20.98
2023-02-06T12:18:42.608Z,18.00
2023-02-06T12:21:36.979Z,22.38
2023-02-06T12:24:31.697Z,20.13
2023-02-06T12:27:06.410Z,21.17
2023-02-06T12:30:03.265Z,21.13
2023-02-06T12:32:41.164Z,21.25
2023-02-06T12:35:40.422Z,21.30
2023-02-06T12:38:46.077Z,23.20
2023-02-06T12:41:41.857Z,21.75
2023-02-06T12:44:34.402Z,22.80
2023-02-06T12:47:09.837Z,22.73
2023-02-06T12:50:04.184Z,24.38
2023-02-06T12:53:07.608Z,23.50
2023-02-06T12:55:45.941Z,22.65
2023-02-06T12:58:42.575Z,23.95
2023-02-06T13:01:43.479Z,21.75
2023-02-06T13:04:25.171Z,24.42
2023-02-06T13:07:08.200Z,24.88
2023-02-06T13:10:02.483Z,23.95
2023-02-06T13:12:32.820Z,23.77
2023-02-06T13:15:08.278Z,23.47
2023-02-06T13:17:43.047Z,22.75
2023-02-06T13:20:18.657Z,23.88
2023-02-06T13:23:16.643Z,26.25
2023-02-06T13:25:44.801Z,25.55
2023-02-06T13:28:21.950Z,23.95
2023-02-06T13:31:21.727Z,25.45
2023-02-06T13:34:02.251Z,21.23
2023-02-06T13:36:50.162Z,22.02
2023-02-06T13:39:33.530Z,22.80
2023-02-06T13:42:32.030Z,24.73
2023-02-06T13:45:04.891Z,26.38
2023-02-06T13:47:55.236Z,23.90
2023-02-06T13:50:54.815Z,20.20
2023-02-06T13:53:33.313Z,22.80
2023-02-06T13:56:36.147Z,23.27
2023-02-06T13:59:27.977Z,23.88
2023-02-06T14:01:57.103Z,22.45
2023-02-06T14:04:30.814Z,21.38
2023-02-06T14:07:08.269Z,22.70
2023-02-06T14:09:45.227Z,20.70
2023-02-06T14:12:53.324Z,22.80
2023-02-06T14:16:04.853Z,22.73
2023-02-06T14:19:03.202Z,22.85
2023-02-06T14:21:59.210Z,21.63
2023-02-06T14:24:43.359Z,20.95
2023-02-06T14:27:32.910Z,24.08
2023-02-06T14:30:35.976Z,22.67
2023-02-06T14:33:42.243Z,22.15
2023-02-06T14:36:47.604Z,23.52
2023-02-06T14:39:55.964Z,22.38
2023-02-06T14:42:32.986Z,25.15
2023-02-06T14:45:05.810Z,23.17
2023-02-06T14:47:43.282Z,26.25
2023-02-06T14:50:28.109Z,24.83
2023-02-06T14:53:11.440Z,25.63
2023-02-06T14:55:43.283Z,25.95
2023-02-06T14:58:31.928Z,23.13
2023-02-06T15:01:23.927Z,23.58
2023-02-06T15:06:38.565Z,25.75
2023-02-06T15:09:08.559Z,26.88
2023-02-06T15:11:39.999Z,27.20
2023-02-06T15:14:35.811Z,26.60
2023-02-06T15:17:04.013Z,25.67
2023-02-06T15:19:35.853Z,28.80
2023-02-06T15:22:13.534Z,29.88
2023-02-06T15:25:28.251Z,30.60
2023-02-06T15:28:18.978Z,25.63
2023-02-06T15:30:53.367Z,29.48
2023-02-06T15:33:29.220Z,31.48
2023-02-06T15:36:03.070Z,24.75
2023-02-06T15:38:34.580Z,28.73
2023-02-06T15:41:08.941Z,30.83
2023-02-06T15:43:38.176Z,22.48
2023-02-06T15:46:07.235Z,20.98
2023-02-06T15:48:41.473Z,25.45
2023-02-06T15:51:40.035Z,25.92
2023-02-06T15:54:28.201Z,23.77
2023-02-06T15:57:17.640Z,24.15
2023-02-06T15:59:46.329Z,24.48
2023-02-06T16:02:26.914Z,22.05
2023-02-06T16:04:55.730Z,23.98
2023-02-06T16:07:32.591Z,22.10
2023-02-06T16:10:08.763Z,24.88
2023-02-06T16:12:41.936Z,25.33
2023-02-06T16:15:40.130Z,26.42
2023-02-06T16:18:34.018Z,24.67
2023-02-06T16:21:31.316Z,26.33
2023-02-06T16:24:17.862Z,24.85
2023-02-06T16:26:52.529Z,26.38
2023-02-06T16:29:32.118Z,27.42
2023-02-06T16:32:12.277Z,28.33
2023-02-06T16:34:46.183Z,27.52
2023-02-06T16:37:28.537Z,26.92
2023-02-06T16:39:58.078Z,29.80
2023-02-06T16:42:35.148Z,26.83
2023-02-06T16:45:26.790Z,25.25
2023-02-06T16:47:56.242Z,45.05
2023-02-06T16:50:25.396Z,43.17
2023-02-06T16:53:03.683Z,36.20
2023-02-06T16:55:32.597Z,33.42
2023-02-06T16:58:02.674Z,49.63
2023-02-06T17:00:34.079Z,41.25
2023-02-06T17:03:03.665Z,41.42
2023-02-06T17:05:33.559Z,37.58
2023-02-06T17:08:04.236Z,51.13
2023-02-06T17:10:33.213Z,53.43
2023-02-06T17:13:01.905Z,50.30
2023-02-06T17:15:31.148Z,54.92
2023-02-06T17:17:59.820Z,57.17
2023-02-06T17:20:37.958Z,56.80
2023-02-06T17:23:07.178Z,39.65
2023-02-06T17:25:36.212Z,37.22
2023-02-06T17:28:08.243Z,36.35
2023-02-06T17:30:38.333Z,36.08
2023-02-06T17:33:07.809Z,39.35
2023-02-06T17:35:40.216Z,36.15
2023-02-06T17:38:10.761Z,39.80
2023-02-06T17:40:42.701Z,34.63
2023-02-06T17:43:11.477Z,39.70
2023-02-06T17:45:41.072Z,37.58
2023-02-06T17:48:09.914Z,41.70
2023-02-06T17:50:40.908Z,41.28
2023-02-06T17:53:14.301Z,42.15
2023-02-06T17:55:42.672Z,60.63
2023-02-06T17:58:12.028Z,61.90
2023-02-06T18:00:41.017Z,62.25
2023-02-06T18:03:10.033Z,59.87
2023-02-06T18:05:39.434Z,52.40
2023-02-06T18:08:08.168Z,65.60
2023-02-06T18:10:36.786Z,60.37
2023-02-06T18:13:05.170Z,58.63
2023-02-06T18:15:34.912Z,66.07
2023-02-06T18:18:05.237Z,64.97
2023-02-06T18:20:36.048Z,66.93
2023-02-06T18:23:04.623Z,61.70
2023-02-06T18:25:32.911Z,61.17
2023-02-06T18:28:01.718Z,58.77
2023-02-06T18:30:30.307Z,55.55
2023-02-06T18:33:02.122Z,54.30
2023-02-06T18:35:30.542Z,49.28
2023-02-06T18:37:59.248Z,55.57
2023-02-06T18:40:27.914Z,56.27
2023-02-06T18:42:56.567Z,53.00
2023-02-06T18:45:34.636Z,52.03
2023-02-06T18:48:09.230Z,54.47
2023-02-06T18:50:42.904Z,59.27
2023-02-06T18:53:11.409Z,61.30
2023-02-06T18:55:40.904Z,59.53
2023-02-06T18:58:12.615Z,57.33
2023-02-06T19:00:43.236Z,59.77
2023-02-06T19:03:17.595Z,64.80
2023-02-06T19:05:46.614Z,68.67
2023-02-06T19:08:23.479Z,61.30
2023-02-06T19:10:52.225Z,62.50
2023-02-06T19:13:23.577Z,61.90
2023-02-06T19:15:52.412Z,65.72
2023-02-06T19:18:35.947Z,64.30
2023-02-06T19:21:11.221Z,64.63
2023-02-06T19:23:40.978Z,61.83
2023-02-06T19:26:14.458Z,56.87
2023-02-06T19:28:44.351Z,78.20
2023-02-06T19:31:15.687Z,75.53
2023-02-06T19:33:44.389Z,70.70
2023-02-06T19:36:16.234Z,65.30
2023-02-06T19:38:45.144Z,72.57
2023-02-06T19:41:24.276Z,74.17
2023-02-06T19:43:55.367Z,65.53
2023-02-06T19:46:27.051Z,63.25
2023-02-06T19:48:56.237Z,62.03
2023-02-06T19:51:32.735Z,57.37
2023-02-06T19:54:02.295Z,56.83
2023-02-06T19:56:40.852Z,55.77
2023-02-06T19:59:28.432Z,58.40
2023-02-06T20:02:03.200Z,71.03
2023-02-06T20:04:37.115Z,63.37
2023-02-06T20:07:08.325Z,67.10
2023-02-06T20:09:42.076Z,62.45
2023-02-06T20:12:15.413Z,60.03
2023-02-06T20:14:44.344Z,59.70
2023-02-06T20:17:13.740Z,60.60
2023-02-06T20:19:42.656Z,63.40
2023-02-06T20:22:11.276Z,62.33
2023-02-06T20:24:40.426Z,48.63
2023-02-06T20:27:10.114Z,61.53
2023-02-06T20:29:43.198Z,63.23
2023-02-06T20:32:12.413Z,65.83
2023-02-06T20:34:41.138Z,61.73
2023-02-06T20:37:09.963Z,60.90
2023-02-06T20:39:38.926Z,49.03
2023-02-06T20:42:07.596Z,40.43
2023-02-06T20:44:37.166Z,42.13
2023-02-06T20:47:06.426Z,41.53
2023-02-06T20:49:36.016Z,38.00
2023-02-06T20:52:04.688Z,43.40
2023-02-06T20:54:34.287Z,40.23
2023-02-06T20:57:03.660Z,40.10
2023-02-06T20:59:32.492Z,43.07
2023-02-06T21:02:01.383Z,40.83
2023-02-06T21:04:34.266Z,43.63
2023-02-06T21:07:03.211Z,38.37
2023-02-06T21:09:32.168Z,36.10
2023-02-06T21:12:01.399Z,40.50
2023-02-06T21:14:34.919Z,40.50
2023-02-06T21:17:04.284Z,42.67
2023-02-06T21:19:36.176Z,41.47
2023-02-06T21:22:05.532Z,43.70
2023-02-06T21:24:36.964Z,41.10
2023-02-06T21:27:09.136Z,40.35
2023-02-06T21:29:42.757Z,41.90
2023-02-06T21:32:14.459Z,48.40
2023-02-06T21:34:44.033Z,47.80
2023-02-06T21:37:12.798Z,47.60
2023-02-06T21:39:42.171Z,48.20
2023-02-06T21:42:12.036Z,44.30
2023-02-06T21:44:41.157Z,46.67
2023-02-06T21:47:10.418Z,45.33
2023-02-06T21:49:39.035Z,46.83
2023-02-06T21:52:07.545Z,47.50
2023-02-06T21:54:36.097Z,43.40
2023-02-06T21:57:05.069Z,47.57
2023-02-06T21:59:34.877Z,47.17
2023-02-06T22:02:03.469Z,45.87
2023-02-06T22:04:32.032Z,42.67
2023-02-06T22:07:01.159Z,44.50
2023-02-06T22:09:29.651Z,43.00
2023-02-06T22:11:58.566Z,45.00
2023-02-06T22:14:27.240Z,48.53
2023-02-06T22:16:56.376Z,50.03
2023-02-06T22:19:25.741Z,51.33
2023-02-06T22:21:54.141Z,48.20
2023-02-06T22:24:23.972Z,50.87
2023-02-06T22:26:52.529Z,49.80
2023-02-06T22:29:21.339Z,45.73
2023-02-06T22:31:50.026Z,53.00
2023-02-06T22:34:21.250Z,47.30
2023-02-06T22:36:54.184Z,51.03
2023-02-06T22:39:24.615Z,49.03
2023-02-06T22:41:54.153Z,49.50
2023-02-06T22:44:22.799Z,47.47
2023-02-06T22:46:53.723Z,48.80
2023-02-06T22:49:24.569Z,37.58
2023-02-06T22:51:52.983Z,47.35
2023-02-06T22:54:21.420Z,44.33
2023-02-06T22:56:50.367Z,46.70
2023-02-06T22:59:25.271Z,44.00
2023-02-06T23:01:58.289Z,44.97
2023-02-06T23:04:30.959Z,41.63
2023-02-06T23:06:59.913Z,43.03
2023-02-06T23:09:38.774Z,41.60
2023-02-06T23:12:10.211Z,40.67
2023-02-06T23:14:39.460Z,39.90
2023-02-06T23:17:08.917Z,43.20
2023-02-06T23:19:38.829Z,35.23
2023-02-06T23:22:08.538Z,37.70
2023-02-06T23:24:37.893Z,40.03
2023-02-06T23:27:07.389Z,35.43
2023-02-06T23:29:37.067Z,35.83
2023-02-06T23:32:06.565Z,35.20
2023-02-06T23:34:35.065Z,37.47
2023-02-06T23:37:04.118Z,33.33
2023-02-06T23:39:32.704Z,39.47
2023-02-06T23:42:01.225Z,34.50
2023-02-06T23:44:30.390Z,36.53
2023-02-06T23:46:59.218Z,33.47
2023-02-06T23:49:28.176Z,31.03
2023-02-06T23:51:57.614Z,31.43
2023-02-06T23:54:26.596Z,31.27
2023-02-06T23:56:55.911Z,32.90
2023-02-06T23:59:24.635Z,32.70
